Time;durP1;ratioP1;P1;durP2;ratioP2;P2;SDS_P1;SDS_P2;PMS_P1;PMS_P2;Temp;Humidity;BMP_temperature;BMP_pressure;BME280_temperature;BME280_humidity;BME280_pressure;Samples;Min_cycle;Max_cycle;Signal;HPM_P1;HPM_P2
2021/12/02 05:14:34;;;;;;;;;;;;;;;5.39;82.06;95594.38;4230035;27;10211;-73
2021/12/02 05:16:36;;;;;;;;;;;;;;;5.44;82.39;95589.38;4194133;28;5833;-73
2021/12/02 05:18:40;;;;;;;;;;;;;;;5.53;81.54;95591.66;4195462;28;5781;-73
2021/12/02 05:20:42;;;;;;;;;;;;;;;5.50;82.41;95592.03;4198533;28;5651;-73
2021/12/02 05:22:43;;;;;;;;;;;;;;;5.60;82.02;95590.91;4196368;28;5654;-73
2021/12/02 05:24:45;;;;;;;;;;;;;;;5.65;81.96;95591.94;4215174;28;5664;-73
2021/12/02 05:26:47;;;;;;;;;;;;;;;5.68;81.74;95596.81;4196747;28;5566;-73
2021/12/02 05:28:53;;;;;;;;;;;;;;;5.67;81.85;95595.19;4214465;28;5635;-73
2021/12/02 05:30:55;;;;;;;;;;;;;;;5.66;81.74;95593.56;4198267;28;5650;-73
2021/12/02 05:32:56;;;;;;;;;;;;;;;5.67;80.92;95597.81;4198613;28;5651;-74
2021/12/02 05:34:59;;;;;;;;;;;;;;;5.47;82.81;95600.28;4214822;28;5643;-74
2021/12/02 05:37:00;;;;;;;;;;;;;;;5.61;82.10;95590.72;4204666;28;5707;-73
2021/12/02 05:39:03;;;;;;;;;;;;;;;5.69;82.08;95592.38;4207659;28;5642;-74
2021/12/02 05:41:04;;;;;;;;;;;;;;;5.74;82.00;95601.28;4190766;28;5668;-74
2021/12/02 05:43:07;;;;;;;;;;;;;;;5.77;81.96;95594.84;4181149;28;5650;-73
2021/12/02 05:45:09;;;;;;;;;;;;;;;5.77;81.86;95593.03;4183434;28;5766;-74
2021/12/02 05:47:11;;;;;;;;;;;;;;;5.80;81.55;95595.28;4211592;28;5647;-74
2021/12/02 05:49:12;;;;;;;;;;;;;;;5.77;81.76;95589.59;4213780;28;5648;-73
2021/12/02 05:51:14;;;;;;;;;;;;;;;5.84;81.65;95591.25;4197825;28;5646;-74
2021/12/02 05:53:16;;;;;;;;;;;;;;;5.82;81.70;95590.66;4198629;28;5675;-73
2021/12/02 05:55:19;;;;;;;;;;;;;;;5.82;81.62;95590.66;4198610;28;5217;-73
2021/12/02 05:57:21;;;;;;;;;;;;;;;5.76;82.05;95586.16;4197633;28;8404;-73
2021/12/02 05:59:24;;;;;;;;;;;;;;;5.82;82.03;95588.03;4201491;28;5670;-74
2021/12/02 06:01:25;;;;;;;;;;;;;;;5.82;82.04;95585.41;4213036;28;5788;-73
2021/12/02 06:03:27;;;;;;;;;;;;;;;5.87;81.96;95584.81;4213224;28;5701;-73
2021/12/02 06:05:31;;;;;;;;;;;;;;;5.90;82.25;95579.22;4213485;28;5822;-73
2021/12/02 06:07:33;;;;;;;;;;;;;;;5.86;81.86;95583.19;4215597;28;5686;-73
2021/12/02 06:09:34;;;;;;;;;;;;;;;5.79;82.11;95577.94;4201741;28;5665;-73
2021/12/02 06:11:36;;;;;;;;;;;;;;;5.68;82.24;95580.28;4186048;28;5650;-73
2021/12/02 06:13:38;;;;;;;;;;;;;;;5.73;82.41;95581.31;4190076;28;5920;-73
2021/12/02 06:15:40;;;;;;;;;;;;;;;5.67;82.91;95579.47;4177726;28;5714;-73
2021/12/02 06:17:43;;;;;;;;;;;;;;;5.54;83.68;95571.50;4177739;28;5680;-73
2021/12/02 06:19:44;;;;;;;;;;;;;;;5.67;83.66;95571.59;4178107;28;5780;-74
2021/12/02 06:21:46;;;;;;;;;;;;;;;5.72;84.37;95569.19;4172255;28;5669;-74
2021/12/02 06:23:48;;;;;;;;;;;;;;;5.54;85.28;95579.34;4173207;28;5649;-74
2021/12/02 06:25:50;;;;;;;;;;;;;;;5.61;85.35;95574.16;4174424;28;6338;-74
2021/12/02 06:27:53;;;;;;;;;;;;;;;5.60;85.33;95575.16;4170699;28;6043;-74
2021/12/02 06:29:55;;;;;;;;;;;;;;;5.33;86.50;95582.03;4175086;28;5708;-74
2021/12/02 06:31:56;;;;;;;;;;;;;;;5.43;85.54;95582.50;4174681;28;6026;-73
2021/12/02 06:33:58;;;;;;;;;;;;;;;5.58;85.01;95583.22;4171221;28;5682;-73
2021/12/02 06:36:00;;;;;;;;;;;;;;;5.69;84.69;95587.13;4171925;28;5783;-73
2021/12/02 06:38:03;;;;;;;;;;;;;;;5.55;85.06;95583.63;4177637;28;5874;-73
2021/12/02 06:40:06;;;;;;;;;;;;;;;5.31;86.80;95586.63;4175074;28;5841;-73
2021/12/02 06:42:08;;;;;;;;;;;;;;;5.44;86.39;95581.53;4169354;28;5648;-73
2021/12/02 06:44:09;;;;;;;;;;;;;;;5.52;85.65;95590.03;4152511;28;5799;-73
2021/12/02 06:46:11;;;;;;;;;;;;;;;5.58;85.38;95585.84;4169254;28;5759;-74
2021/12/02 06:48:13;;;;;;;;;;;;;;;5.62;85.03;95592.31;4168940;28;5752;-73
2021/12/02 06:50:18;;;;;;;;;;;;;;;5.58;85.03;95591.09;4170667;28;6390;-74
2021/12/02 06:52:22;;;;;;;;;;;;;;;5.45;86.07;95591.81;4153204;28;5668;-74
2021/12/02 06:54:24;;;;;;;;;;;;;;;5.55;85.52;95586.25;4171275;28;5837;-74
2021/12/02 06:56:26;;;;;;;;;;;;;;;5.63;85.02;95588.69;4169576;28;5666;-74
2021/12/02 06:58:27;;;;;;;;;;;;;;;5.64;85.04;95589.50;4170688;28;5872;-73
2021/12/02 07:00:29;;;;;;;;;;;;;;;5.68;84.75;95590.75;4169018;28;5665;-74
2021/12/02 07:02:32;;;;;;;;;;;;;;;5.67;84.85;95595.19;4152809;28;5735;-74
2021/12/02 07:04:33;;;;;;;;;;;;;;;5.61;84.48;95592.53;4169045;28;5672;-73
2021/12/02 07:06:37;;;;;;;;;;;;;;;5.55;84.51;95594.09;4168945;28;5665;-73
2021/12/02 07:08:39;;;;;;;;;;;;;;;5.59;83.92;95594.53;4188755;28;5654;-74
2021/12/02 07:10:41;;;;;;;;;;;;;;;5.51;84.03;95600.72;4152615;28;5690;-74
2021/12/02 07:12:46;;;;;;;;;;;;;;;5.52;83.62;95604.94;4174079;28;5757;-74
2021/12/02 07:14:48;;;;;;;;;;;;;;;5.38;83.45;95604.06;4170863;28;5728;-74
2021/12/02 07:16:50;;;;;;;;;;;;;;;5.20;83.08;95608.94;4168882;28;5674;-73
2021/12/02 07:18:57;;;;;;;;;;;;;;;5.18;83.52;95610.94;4186594;28;5723;-74
2021/12/02 07:20:58;;;;;;;;;;;;;;;5.42;83.17;95612.34;4181455;28;5719;-74
2021/12/02 07:23:00;;;;;;;;;;;;;;;5.48;82.61;95619.44;4177745;28;5835;-73
2021/12/02 07:25:03;;;;;;;;;;;;;;;5.28;83.31;95626.34;4173858;28;5932;-74
2021/12/02 07:27:06;;;;;;;;;;;;;;;5.40;82.91;95614.34;4184328;28;5732;-73
2021/12/02 07:29:13;;;;;;;;;;;;;;;5.38;82.67;95621.59;4160983;28;5774;-74
2021/12/02 07:31:15;;;;;;;;;;;;;;;5.43;82.96;95613.94;4176705;28;5745;-73
2021/12/02 07:33:18;;;;;;;;;;;;;;;5.42;82.49;95626.25;4157429;28;5673;-74
2021/12/02 07:35:21;;;;;;;;;;;;;;;5.46;82.95;95618.84;4169148;28;5752;-74
2021/12/02 07:37:24;;;;;;;;;;;;;;;5.56;82.67;95621.94;4168856;28;5745;-74
2021/12/02 07:39:25;;;;;;;;;;;;;;;5.60;82.53;95620.56;4184049;28;5664;-73
2021/12/02 07:41:28;;;;;;;;;;;;;;;5.57;83.00;95625.38;4181362;28;5754;-74
2021/12/02 07:43:32;;;;;;;;;;;;;;;5.59;82.98;95618.13;4173958;28;6520;-73
2021/12/02 07:45:35;;;;;;;;;;;;;;;5.57;83.19;95618.31;4169121;28;5729;-73
2021/12/02 07:47:39;;;;;;;;;;;;;;;5.53;83.21;95614.44;4179438;28;5646;-74
2021/12/02 07:49:41;;;;;;;;;;;;;;;5.52;84.05;95623.31;4172041;28;6729;-74
2021/12/02 07:51:44;;;;;;;;;;;;;;;5.57;83.78;95620.13;4168620;28;5867;-73
2021/12/02 07:53:48;;;;;;;;;;;;;;;5.57;83.38;95625.38;4169331;28;5764;-73
2021/12/02 07:55:52;;;;;;;;;;;;;;;5.63;83.31;95620.16;4172321;28;5794;-74
2021/12/02 07:57:53;;;;;;;;;;;;;;;5.59;83.50;95624.19;4167879;28;5673;-73
2021/12/02 07:59:55;;;;;;;;;;;;;;;5.63;83.35;95622.78;4172441;28;5711;-73
2021/12/02 08:02:00;;;;;;;;;;;;;;;5.60;83.25;95625.00;4164493;28;5669;-74
2021/12/02 08:04:02;;;;;;;;;;;;;;;5.46;82.45;95622.28;4152157;28;5723;-73
2021/12/02 08:06:04;;;;;;;;;;;;;;;5.52;83.19;95631.97;4184396;28;5667;-73
2021/12/02 08:08:06;;;;;;;;;;;;;;;5.53;82.41;95623.09;4167943;28;5669;-75
2021/12/02 08:10:10;;;;;;;;;;;;;;;5.57;82.95;95628.81;4168709;28;5725;-74
2021/12/02 08:12:11;;;;;;;;;;;;;;;5.53;81.93;95625.72;4176536;28;6310;-74
2021/12/02 08:14:16;;;;;;;;;;;;;;;5.32;82.58;95633.63;4194774;28;5651;-74
2021/12/02 08:16:20;;;;;;;;;;;;;;;5.53;82.57;95630.97;4185581;28;5775;-74
2021/12/02 08:18:22;;;;;;;;;;;;;;;5.55;82.49;95633.44;4185667;28;5735;-73
2021/12/02 08:20:26;;;;;;;;;;;;;;;5.41;82.42;95631.69;4185878;28;5683;-74
2021/12/02 08:22:28;;;;;;;;;;;;;;;5.55;82.18;95620.31;4167350;28;5661;-73
2021/12/02 08:24:29;;;;;;;;;;;;;;;5.54;81.95;95629.16;4193868;28;5789;-74
2021/12/02 08:26:32;;;;;;;;;;;;;;;5.54;81.41;95627.34;4174923;28;5733;-73
2021/12/02 08:28:34;;;;;;;;;;;;;;;5.66;81.22;95626.81;4193552;28;5763;-74
2021/12/02 08:30:37;;;;;;;;;;;;;;;5.67;81.24;95626.66;4189311;28;5635;-74
2021/12/02 08:32:42;;;;;;;;;;;;;;;5.60;80.98;95635.47;4184230;28;5646;-74
2021/12/02 08:34:44;;;;;;;;;;;;;;;5.72;81.04;95633.94;4185243;28;5753;-74
2021/12/02 08:36:53;;;;;;;;;;;;;;;5.79;81.02;95643.50;4185170;28;5642;-74
2021/12/02 08:38:57;;;;;;;;;;;;;;;5.75;81.40;95644.84;4178297;28;5754;-74
2021/12/02 08:41:00;;;;;;;;;;;;;;;5.67;80.77;95642.41;4200401;28;5666;-74
2021/12/02 08:43:04;;;;;;;;;;;;;;;5.52;81.40;95641.66;4167677;28;5661;-74
2021/12/02 08:45:06;;;;;;;;;;;;;;;5.50;82.13;95644.47;4174558;28;5114;-74
2021/12/02 08:47:09;;;;;;;;;;;;;;;5.65;81.59;95643.56;4172146;28;5712;-74
2021/12/02 08:49:11;;;;;;;;;;;;;;;5.76;81.00;95641.22;4170479;28;5666;-74
2021/12/02 08:51:13;;;;;;;;;;;;;;;5.71;80.42;95641.00;4186819;28;5705;-74
2021/12/02 08:53:15;;;;;;;;;;;;;;;5.57;80.35;95641.09;4176984;28;5658;-74
2021/12/02 08:55:19;;;;;;;;;;;;;;;5.60;80.39;95640.72;4167987;28;5669;-74
2021/12/02 08:57:22;;;;;;;;;;;;;;;5.75;79.19;95639.59;4182507;28;5654;-74
2021/12/02 08:59:24;;;;;;;;;;;;;;;5.79;79.10;95648.75;4167658;28;5714;-74
2021/12/02 09:01:28;;;;;;;;;;;;;;;5.79;79.26;95646.13;4187315;28;5763;-74
2021/12/02 09:03:30;;;;;;;;;;;;;;;5.83;79.08;95652.59;4172145;28;5664;-74
2021/12/02 09:05:33;;;;;;;;;;;;;;;5.84;79.15;95648.97;4167493;28;5661;-74
2021/12/02 09:07:35;;;;;;;;;;;;;;;5.64;80.33;95648.00;4184973;28;5639;-74
2021/12/02 09:09:37;;;;;;;;;;;;;;;5.72;80.51;95645.25;4197102;28;5648;-74
2021/12/02 09:11:39;;;;;;;;;;;;;;;5.88;80.68;95648.56;4183717;28;5638;-74
2021/12/02 09:13:40;;;;;;;;;;;;;;;5.93;80.24;95638.34;4183570;28;5654;-74
2021/12/02 09:15:42;;;;;;;;;;;;;;;5.98;79.64;95644.63;4184711;28;5769;-73
2021/12/02 09:17:44;;;;;;;;;;;;;;;5.95;80.24;95646.84;4172712;28;5761;-74
2021/12/02 09:19:46;;;;;;;;;;;;;;;5.94;79.86;95651.28;4169184;28;5658;-73
2021/12/02 09:21:48;;;;;;;;;;;;;;;5.92;79.35;95652.47;4184286;28;5639;-73
2021/12/02 09:23:51;;;;;;;;;;;;;;;5.90;79.49;95646.59;4185422;28;5646;-74
2021/12/02 09:25:53;;;;;;;;;;;;;;;5.84;79.17;95654.19;4196969;28;5632;-74
2021/12/02 09:27:55;;;;;;;;;;;;;;;5.82;79.45;95652.78;4167099;28;5689;-74
2021/12/02 09:29:57;;;;;;;;;;;;;;;5.80;79.51;95642.50;4171128;28;5935;-74
2021/12/02 09:31:58;;;;;;;;;;;;;;;5.77;80.05;95648.09;4169381;28;5657;-74
2021/12/02 09:34:00;;;;;;;;;;;;;;;5.68;80.43;95649.25;4199269;28;5739;-74
2021/12/02 09:36:02;;;;;;;;;;;;;;;5.84;80.21;95645.53;4191110;28;5639;-74
2021/12/02 09:38:06;;;;;;;;;;;;;;;5.85;80.20;95645.34;4197970;28;6020;-74
2021/12/02 09:40:11;;;;;;;;;;;;;;;5.87;79.78;95646.94;4170290;28;5083;-74
2021/12/02 09:42:14;;;;;;;;;;;;;;;5.91;79.57;95653.50;4192591;28;5667;-74
2021/12/02 09:44:29;;;;;;;;;;;;;;;5.75;80.21;95660.59;4201306;28;5616;-74
2021/12/02 09:46:32;;;;;;;;;;;;;;;5.71;80.24;95648.88;4173956;28;5690;-74
2021/12/02 09:48:35;;;;;;;;;;;;;;;5.66;81.15;95651.25;4184690;28;5779;-74
2021/12/02 09:50:46;;;;;;;;;;;;;;;5.54;81.33;95655.38;4186606;28;5762;-74
2021/12/02 09:52:48;;;;;;;;;;;;;;;5.56;81.21;95650.78;4186942;28;5751;-74
2021/12/02 09:54:59;;;;;;;;;;;;;;;5.62;79.50;95649.19;4170129;28;5669;-74
2021/12/02 09:57:03;;;;;;;;;;;;;;;5.58;77.37;95664.50;4169985;28;5877;-74
2021/12/02 09:59:08;;;;;;;;;;;;;;;5.47;76.95;95657.16;4193679;28;5628;-74
2021/12/02 10:01:14;;;;;;;;;;;;;;;5.27;78.16;95662.22;4204230;28;5751;-74
2021/12/02 10:03:39;;;;;;;;;;;;;;;5.39;78.38;95660.72;4174687;28;5773;-74
2021/12/02 10:05:56;;;;;;;;;;;;;;;5.48;79.08;95658.78;4180506;28;5658;-74
2021/12/02 10:08:02;;;;;;;;;;;;;;;5.40;79.87;95645.78;4185205;28;5634;-74
2021/12/02 10:12:18;;;;;;;;;;;;;;;5.51;78.54;95647.91;4187207;28;5655;-73
2021/12/02 10:14:31;;;;;;;;;;;;;;;5.43;77.85;95642.78;4170013;28;5681;-74
2021/12/02 10:16:35;;;;;;;;;;;;;;;5.40;78.89;95638.72;4171342;28;5759;-74
2021/12/02 10:18:50;;;;;;;;;;;;;;;5.39;78.67;95639.75;4170547;28;5733;-75
2021/12/02 10:20:52;;;;;;;;;;;;;;;5.40;79.26;95630.06;4170184;28;5777;-74
2021/12/02 10:23:32;;;;;;;;;;;;;;;5.44;79.32;95629.50;4181934;28;5731;-74
2021/12/02 10:25:35;;;;;;;;;;;;;;;5.51;79.58;95622.50;4168763;28;5788;-74
2021/12/02 10:28:02;;;;;;;;;;;;;;;5.56;79.38;95627.19;4169998;28;5672;-74
2021/12/02 10:30:22;;;;;;;;;;;;;;;5.49;79.61;95618.44;4185594;28;5723;-73
2021/12/02 10:32:28;;;;;;;;;;;;;;;5.53;79.73;95612.63;4186002;28;5662;-73
2021/12/02 10:34:30;;;;;;;;;;;;;;;5.64;80.38;95608.66;4172320;28;5888;-73
2021/12/02 10:36:39;;;;;;;;;;;;;;;5.68;80.27;95596.81;4169625;28;5770;-73
2021/12/02 10:38:43;;;;;;;;;;;;;;;5.76;80.23;95596.66;4175429;28;5715;-74
2021/12/02 10:41:00;;;;;;;;;;;;;;;5.84;79.96;95600.94;4185879;28;5916;-74
2021/12/02 10:43:07;;;;;;;;;;;;;;;5.76;80.69;95594.03;4184917;28;5647;-74
2021/12/02 10:45:20;;;;;;;;;;;;;;;5.76;81.30;95598.47;4169144;28;5682;-74
2021/12/02 10:47:23;;;;;;;;;;;;;;;5.72;81.69;95590.19;4170980;28;5737;-73
2021/12/02 10:49:25;;;;;;;;;;;;;;;5.84;80.76;95591.25;4166023;28;5765;-74
2021/12/02 10:51:42;;;;;;;;;;;;;;;5.95;80.40;95581.25;4170505;28;5687;-74
2021/12/02 10:54:01;;;;;;;;;;;;;;;6.01;80.42;95583.13;4168772;28;6013;-74
2021/12/02 10:56:02;;;;;;;;;;;;;;;6.08;80.11;95571.63;4168859;28;5685;-74
2021/12/02 10:58:07;;;;;;;;;;;;;;;6.08;79.64;95581.31;4154981;28;5699;-74
2021/12/02 11:00:13;;;;;;;;;;;;;;;6.07;79.21;95571.84;4186168;28;5643;-73
2021/12/02 11:02:19;;;;;;;;;;;;;;;5.97;79.24;95574.81;4177115;28;5811;-74
2021/12/02 11:04:22;;;;;;;;;;;;;;;5.89;80.53;95568.88;4172540;28;5665;-73
2021/12/02 11:07:01;;;;;;;;;;;;;;;6.04;79.42;95561.75;4169566;28;5764;-74
2021/12/02 11:09:02;;;;;;;;;;;;;;;5.96;79.66;95561.91;4146699;28;5728;-73
2021/12/02 11:11:21;;;;;;;;;;;;;;;6.04;80.04;95556.50;4147628;28;5703;-74
2021/12/02 11:13:28;;;;;;;;;;;;;;;6.19;79.47;95561.59;4151109;28;5839;-74
2021/12/02 11:15:32;;;;;;;;;;;;;;;6.16;79.16;95559.38;4151971;28;5943;-74
2021/12/02 11:17:44;;;;;;;;;;;;;;;6.24;79.00;95557.41;4118317;28;5841;-74
2021/12/02 11:19:49;;;;;;;;;;;;;;;6.27;78.43;95553.56;4134367;28;5823;-74
2021/12/02 11:22:06;;;;;;;;;;;;;;;6.28;78.05;95555.97;4150996;28;5846;-73
2021/12/02 11:24:08;;;;;;;;;;;;;;;6.31;77.99;95557.41;4150653;28;5917;-73
2021/12/02 11:26:15;;;;;;;;;;;;;;;6.36;77.64;95553.19;4135703;28;5492;-74
2021/12/02 11:28:17;;;;;;;;;;;;;;;6.25;76.57;95550.31;4106109;28;7307;-74
2021/12/02 11:30:27;;;;;;;;;;;;;;;6.29;77.59;95546.28;4124803;28;5845;-73
2021/12/02 11:32:28;;;;;;;;;;;;;;;6.32;77.94;95541.44;4136017;28;5840;-74
2021/12/02 11:34:30;;;;;;;;;;;;;;;6.34;77.96;95544.72;4152314;28;5839;-74
2021/12/02 11:36:33;;;;;;;;;;;;;;;6.24;77.16;95543.47;4129970;28;5874;-74
2021/12/02 11:38:35;;;;;;;;;;;;;;;6.22;77.59;95534.94;4119781;28;5952;-74
2021/12/02 11:40:42;;;;;;;;;;;;;;;6.18;77.69;95537.16;4135739;28;5204;-74
2021/12/02 11:42:45;;;;;;;;;;;;;;;6.23;77.54;95528.69;4126940;28;5680;-74
2021/12/02 11:44:48;;;;;;;;;;;;;;;6.00;78.52;95535.09;4169922;28;5745;-74
2021/12/02 11:46:50;;;;;;;;;;;;;;;6.18;78.03;95531.91;4165959;28;5661;-74
2021/12/02 11:48:52;;;;;;;;;;;;;;;6.23;77.68;95531.31;4165093;28;5781;-74
2021/12/02 11:50:57;;;;;;;;;;;;;;;6.32;77.94;95538.03;4164070;28;5787;-74
2021/12/02 11:52:59;;;;;;;;;;;;;;;6.08;78.00;95537.53;4158739;28;5732;-74
2021/12/02 11:55:04;;;;;;;;;;;;;;;6.21;77.95;95528.09;4168512;28;6302;-74
2021/12/02 11:57:06;;;;;;;;;;;;;;;6.23;78.55;95529.53;4167994;28;5733;-74
2021/12/02 11:59:09;;;;;;;;;;;;;;;6.17;78.88;95525.06;4167645;28;5753;-74
2021/12/02 12:01:22;;;;;;;;;;;;;;;6.21;79.03;95526.28;4167135;28;5906;-74
2021/12/02 12:03:39;;;;;;;;;;;;;;;6.26;78.58;95531.75;4151733;28;5769;-74
2021/12/02 12:06:08;;;;;;;;;;;;;;;6.16;78.13;95523.44;4167322;28;5654;-74
2021/12/02 12:08:35;;;;;;;;;;;;;;;5.74;80.47;95519.97;4162892;28;5676;-73
2021/12/02 12:10:41;;;;;;;;;;;;;;;5.96;79.63;95517.31;4153044;28;5763;-74
2021/12/02 12:12:43;;;;;;;;;;;;;;;5.83;80.48;95512.78;4159342;28;5741;-74
2021/12/02 12:14:46;;;;;;;;;;;;;;;5.76;81.72;95515.34;4189792;28;5938;-74
2021/12/02 12:16:50;;;;;;;;;;;;;;;5.94;81.32;95517.50;4188254;28;5666;-74
2021/12/02 12:18:54;;;;;;;;;;;;;;;5.97;80.51;95517.09;4193240;28;5714;-74
2021/12/02 12:21:01;;;;;;;;;;;;;;;5.95;79.78;95516.50;4202156;28;5737;-74
2021/12/02 12:23:42;;;;;;;;;;;;;;;5.90;78.84;95515.44;4202358;28;5687;-73
2021/12/02 12:25:43;;;;;;;;;;;;;;;5.80;77.70;95502.69;4185442;28;5638;-74
2021/12/02 12:27:57;;;;;;;;;;;;;;;5.71;79.06;95506.47;4167456;28;5724;-74
2021/12/02 12:30:06;;;;;;;;;;;;;;;5.84;76.69;95498.66;4185203;28;5635;-74
2021/12/02 12:34:31;;;;;;;;;;;;;;;5.67;76.94;95495.56;4185470;28;5647;-74
2021/12/02 12:36:39;;;;;;;;;;;;;;;5.72;77.18;95490.53;4160267;28;5673;-74
2021/12/02 12:38:42;;;;;;;;;;;;;;;5.65;78.14;95500.16;4185315;28;5651;-74
2021/12/02 12:40:47;;;;;;;;;;;;;;;5.54;79.42;95495.47;4185474;28;5635;-73
2021/12/02 12:43:12;;;;;;;;;;;;;;;5.61;77.94;95490.28;4188912;28;5678;-74
2021/12/02 12:45:38;;;;;;;;;;;;;;;5.60;76.61;95497.31;4174541;28;5635;-74
2021/12/02 12:47:40;;;;;;;;;;;;;;;5.48;75.88;95499.69;4167694;28;5657;-74
2021/12/02 12:49:42;;;;;;;;;;;;;;;5.39;76.25;95492.16;4147903;28;5672;-74
2021/12/02 12:51:54;;;;;;;;;;;;;;;5.47;76.49;95498.06;4187586;28;5655;-74
2021/12/02 12:53:57;;;;;;;;;;;;;;;5.29;78.30;95499.56;4167987;28;5824;-73
2021/12/02 12:55:58;;;;;;;;;;;;;;;5.53;78.13;95486.00;4188069;28;6319;-73
2021/12/02 12:58:18;;;;;;;;;;;;;;;5.56;77.66;95483.00;4174038;28;5681;-73
2021/12/02 13:00:57;;;;;;;;;;;;;;;5.57;77.32;95483.81;4166439;28;5853;-74
2021/12/02 13:03:05;;;;;;;;;;;;;;;5.63;75.83;95478.59;4166956;28;5661;-73
2021/12/02 13:05:07;;;;;;;;;;;;;;;5.64;76.06;95474.94;4185222;28;5815;-74
2021/12/02 13:07:16;;;;;;;;;;;;;;;5.58;76.17;95488.03;4190647;28;5722;-74
2021/12/02 13:09:53;;;;;;;;;;;;;;;5.73;76.08;95488.72;4195431;28;5869;-74
2021/12/02 13:11:58;;;;;;;;;;;;;;;5.81;76.09;95515.59;4179126;28;5705;-74
2021/12/02 13:14:02;;;;;;;;;;;;;;;5.29;76.46;95544.09;4187480;28;5734;-73
2021/12/02 13:16:14;;;;;;;;;;;;;;;4.63;76.07;95566.09;4184624;28;5642;-74
2021/12/02 13:18:31;;;;;;;;;;;;;;;4.14;77.05;95575.59;4190778;28;5799;-73
2021/12/02 13:20:38;;;;;;;;;;;;;;;2.63;82.47;95573.16;4201498;28;5668;-74
2021/12/02 13:22:40;;;;;;;;;;;;;;;2.48;83.97;95567.84;4176871;28;5658;-73
2021/12/02 13:24:41;;;;;;;;;;;;;;;1.90;85.27;95553.47;4199789;28;5777;-73
2021/12/02 13:26:47;;;;;;;;;;;;;;;1.95;85.64;95553.81;4215892;28;5772;-73
2021/12/02 13:28:50;;;;;;;;;;;;;;;1.81;86.09;95561.50;4183926;28;5638;-73
2021/12/02 13:31:01;;;;;;;;;;;;;;;1.76;87.24;95551.59;4181194;28;5687;-73
2021/12/02 13:33:04;;;;;;;;;;;;;;;1.77;86.52;95552.41;4196328;28;5745;-72
2021/12/02 13:35:06;;;;;;;;;;;;;;;1.58;87.29;95551.00;4154223;28;5743;-73
2021/12/02 13:37:10;;;;;;;;;;;;;;;1.65;87.64;95541.53;4171597;28;5685;-73
2021/12/02 13:39:18;;;;;;;;;;;;;;;1.69;86.18;95543.63;4173877;28;5662;-73
2021/12/02 13:41:21;;;;;;;;;;;;;;;1.84;86.76;95548.16;4190003;28;5647;-73
2021/12/02 13:43:22;;;;;;;;;;;;;;;1.87;86.01;95550.41;4193681;28;5756;-73
2021/12/02 13:45:26;;;;;;;;;;;;;;;1.93;85.07;95541.94;4182928;28;5650;-73
2021/12/02 13:47:31;;;;;;;;;;;;;;;1.86;84.53;95540.97;4175304;28;5642;-73
2021/12/02 13:49:38;;;;;;;;;;;;;;;1.90;84.72;95543.06;4177298;28;5646;-72
2021/12/02 13:54:18;;;;;;;;;;;;;;;1.96;85.68;95531.97;4182500;28;5781;-73
2021/12/02 13:56:26;;;;;;;;;;;;;;;2.10;84.76;95534.84;4188258;28;5642;-73
2021/12/02 13:58:30;;;;;;;;;;;;;;;2.19;83.24;95542.44;4170554;28;5782;-73
2021/12/02 14:00:38;;;;;;;;;;;;;;;2.21;82.97;95540.47;4170579;28;5775;-73
2021/12/02 14:02:47;;;;;;;;;;;;;;;2.36;83.06;95550.97;4180197;28;5799;-73
2021/12/02 14:04:51;;;;;;;;;;;;;;;2.40;82.34;95554.06;4187854;28;5643;-74
2021/12/02 14:07:15;;;;;;;;;;;;;;;2.59;81.25;95572.66;4192535;28;5634;-73
2021/12/02 14:09:18;;;;;;;;;;;;;;;2.67;79.13;95582.25;4186591;28;5658;-73
2021/12/02 14:11:19;;;;;;;;;;;;;;;2.45;77.88;95585.66;4204356;28;5751;-73
2021/12/02 14:13:24;;;;;;;;;;;;;;;2.57;78.95;95594.69;4187765;28;5654;-73
2021/12/02 14:15:29;;;;;;;;;;;;;;;2.70;80.10;95613.19;4191271;28;5650;-73
2021/12/02 14:17:33;;;;;;;;;;;;;;;2.86;79.59;95617.53;4173630;28;5770;-73
2021/12/02 14:19:35;;;;;;;;;;;;;;;3.00;80.11;95629.00;4186338;28;5638;-73
2021/12/02 14:21:37;;;;;;;;;;;;;;;2.90;77.29;95635.25;4185138;28;5651;-73
2021/12/02 14:23:44;;;;;;;;;;;;;;;2.95;78.99;95647.81;4175620;28;5675;-73
2021/12/02 14:25:48;;;;;;;;;;;;;;;3.10;79.43;95661.72;4168980;28;5729;-73
2021/12/02 14:28:10;;;;;;;;;;;;;;;3.13;77.94;95665.78;4194553;28;5666;-73
2021/12/02 14:30:18;;;;;;;;;;;;;;;3.02;78.81;95674.81;4179799;28;5661;-73
2021/12/02 14:32:20;;;;;;;;;;;;;;;3.11;78.64;95683.44;4186171;28;5663;-73
2021/12/02 14:34:25;;;;;;;;;;;;;;;3.21;78.75;95690.03;4184392;28;5755;-74
2021/12/02 14:36:29;;;;;;;;;;;;;;;3.23;77.59;95708.16;4202276;28;5632;-74
2021/12/02 14:38:34;;;;;;;;;;;;;;;3.41;78.56;95708.69;4204109;28;5644;-74
2021/12/02 14:40:44;;;;;;;;;;;;;;;3.21;76.34;95710.94;4192687;28;5706;-74
2021/12/02 14:42:46;;;;;;;;;;;;;;;3.38;78.91;95721.25;4187469;28;5706;-74
2021/12/02 14:44:48;;;;;;;;;;;;;;;3.47;78.69;95726.25;4174351;28;6127;-74
2021/12/02 14:46:57;;;;;;;;;;;;;;;3.59;78.69;95729.25;4187051;28;5619;-74
2021/12/02 14:49:33;;;;;;;;;;;;;;;3.64;78.43;95740.03;4187238;28;5642;-74
2021/12/02 14:51:43;;;;;;;;;;;;;;;3.55;77.47;95740.25;4186520;28;5647;-74
2021/12/02 14:53:47;;;;;;;;;;;;;;;3.64;77.21;95745.25;4173011;28;5765;-74
2021/12/02 14:55:50;;;;;;;;;;;;;;;3.57;77.09;95760.00;4168909;28;5665;-74
2021/12/02 14:57:54;;;;;;;;;;;;;;;3.18;73.84;95753.09;4186658;28;6335;-74
2021/12/02 15:00:14;;;;;;;;;;;;;;;3.15;74.67;95763.84;4174757;28;5651;-75
2021/12/02 15:02:21;;;;;;;;;;;;;;;3.29;74.77;95764.94;4164540;28;5728;-74
2021/12/02 15:04:25;;;;;;;;;;;;;;;3.23;73.99;95776.06;4203536;28;5636;-74
2021/12/02 15:06:37;;;;;;;;;;;;;;;3.20;74.78;95776.41;4183947;28;5643;-72
2021/12/02 15:08:39;;;;;;;;;;;;;;;3.18;73.71;95773.97;4203560;28;5639;-74
2021/12/02 15:10:41;;;;;;;;;;;;;;;3.13;74.13;95778.88;4171401;28;5766;-75
2021/12/02 15:12:44;;;;;;;;;;;;;;;3.09;75.28;95787.25;4168865;28;5661;-74
2021/12/02 15:14:50;;;;;;;;;;;;;;;3.12;75.29;95792.94;4186361;28;5710;-74
2021/12/02 15:16:53;;;;;;;;;;;;;;;3.17;75.61;95805.47;4168109;28;5678;-74
2021/12/02 15:18:56;;;;;;;;;;;;;;;2.74;75.19;95818.06;4190037;28;5659;-74
2021/12/02 15:21:00;;;;;;;;;;;;;;;2.63;75.43;95818.44;4187884;28;5654;-75
2021/12/02 15:23:06;;;;;;;;;;;;;;;2.77;75.75;95819.53;4170078;28;5681;-74
2021/12/02 15:25:16;;;;;;;;;;;;;;;2.90;75.94;95822.41;4172197;28;5639;-74
2021/12/02 15:27:18;;;;;;;;;;;;;;;2.98;75.97;95829.41;4179206;28;5670;-74
2021/12/02 15:29:19;;;;;;;;;;;;;;;3.07;75.68;95833.59;4186504;28;5758;-74
2021/12/02 15:31:31;;;;;;;;;;;;;;;3.20;75.82;95834.69;4193006;28;6321;-74
2021/12/02 15:33:39;;;;;;;;;;;;;;;3.22;75.74;95842.34;4187693;28;5646;-74
2021/12/02 15:35:41;;;;;;;;;;;;;;;3.21;75.41;95840.72;4199743;28;5652;-75
2021/12/02 15:37:44;;;;;;;;;;;;;;;3.22;75.38;95843.16;4191915;28;5666;-75
2021/12/02 15:39:46;;;;;;;;;;;;;;;3.28;75.46;95854.72;4195932;28;5655;-74
2021/12/02 15:41:47;;;;;;;;;;;;;;;3.28;75.01;95859.94;4192399;28;5713;-75
2021/12/02 15:43:59;;;;;;;;;;;;;;;3.28;75.21;95857.31;4185756;28;5666;-75
2021/12/02 15:46:02;;;;;;;;;;;;;;;3.26;75.61;95866.31;4188233;28;5642;-75
2021/12/02 15:48:05;;;;;;;;;;;;;;;3.27;74.68;95871.38;4190696;28;5631;-75
2021/12/02 15:50:13;;;;;;;;;;;;;;;3.24;74.46;95876.94;4156480;28;5720;-75
2021/12/02 15:52:15;;;;;;;;;;;;;;;3.20;74.24;95876.47;4185538;28;5741;-75
2021/12/02 15:54:16;;;;;;;;;;;;;;;3.20;74.36;95878.28;4184825;28;5957;-75
2021/12/02 15:56:18;;;;;;;;;;;;;;;3.20;74.65;95875.66;4187698;28;5753;-75
2021/12/02 15:58:21;;;;;;;;;;;;;;;3.26;74.65;95885.41;4172065;28;5795;-75
2021/12/02 16:00:23;;;;;;;;;;;;;;;3.31;74.38;95893.56;4181008;28;5773;-75
2021/12/02 16:02:27;;;;;;;;;;;;;;;3.31;73.26;95890.97;4180954;28;5674;-75
2021/12/02 16:09:22;;;;;;;;;;;;;;;3.02;69.88;95909.00;4149612;28;5923;-74
2021/12/02 16:13:36;;;;;;;;;;;;;;;2.92;68.33;95920.44;4157370;28;7733;-75
2021/12/02 16:15:37;;;;;;;;;;;;;;;2.84;67.87;95917.88;4142576;28;5887;-74
2021/12/02 16:17:39;;;;;;;;;;;;;;;2.74;67.42;95927.69;4129809;28;5802;-74
2021/12/02 16:19:40;;;;;;;;;;;;;;;2.69;67.40;95932.56;4147008;28;5908;-74
2021/12/02 16:21:42;;;;;;;;;;;;;;;2.75;69.65;95928.50;4113886;28;5962;-74
2021/12/02 16:23:44;;;;;;;;;;;;;;;2.79;69.32;95941.03;4107963;28;5876;-73
2021/12/02 16:25:46;;;;;;;;;;;;;;;2.87;68.16;95948.88;4139027;28;5905;-74
2021/12/02 16:27:48;;;;;;;;;;;;;;;2.90;69.42;95953.75;4130776;28;5790;-75
2021/12/02 16:29:50;;;;;;;;;;;;;;;2.99;69.34;95953.75;4126365;28;5802;-74
2021/12/02 16:31:52;;;;;;;;;;;;;;;2.99;69.35;95970.22;4144773;28;5725;-75
2021/12/02 16:33:55;;;;;;;;;;;;;;;2.99;69.53;95966.78;4114739;28;6533;-74
2021/12/02 16:35:57;;;;;;;;;;;;;;;3.01;68.77;95972.66;4126306;28;5853;-75
2021/12/02 16:37:59;;;;;;;;;;;;;;;2.89;68.53;95975.63;4130139;28;5814;-74